Cedar Falls, IA

7:52 AM CDT on October 24, 2014 (GMT -0500)
Waterloo Municipal | Change Station
CLOSE
Current Station
Airport
Location: Waterloo,
Elevation: 873 ft
Nearby Weather Stations
Active Advisory: Dense Fog Advisory

Elev 873 ft 42.55 °N, 92.40 °W | Updated 13 minutes ago

Fog
Fog
46 °F
Feels Like 43 °F
N
6
Wind Variable Wind from SSE

Today
High -- | Low -- °F
--% Chance of Precip.
Yesterday
High -- | Low -- °F
Precip. -- in
7:33 AM 6:13 PM
New Moon, 0% visible
Pressure 29.99 in
Visibility 0.5 miles
Clouds Overcast 200 ft
Windchill 43 °F
Dew Point 46 °F
Humidity 100%
Rainfall 0.00 in
Snow Depth Not available.
UV 0 out of 12
Pollen 1.70 out of 12
Air Quality Not available.
Flu Activity Sporadic
SPECI KALO 241239Z AUTO 16005KT 1/2SM R12/1400V1600FT FG OVC002 08/08 A2999 RMK AO2 T00780078

More Conditions Fewer Conditions

Pressure 29.99 in
Visibility 0.5 miles
Clouds Overcast 200 ft
Windchill 43 °F
Dew Point 46 °F
Humidity 100%
Rainfall 0.00 in
Snow Depth Not available.
UV 0 out of 12
Pollen 1.70 out of 12
Air Quality Not available.
Flu Activity Sporadic
SPECI KALO 241239Z AUTO 16005KT 1/2SM R12/1400V1600FT FG OVC002 08/08 A2999 RMK AO2 T00780078

More Conditions Fewer Conditions

10-Day Weather Forecast

Almanac

Astronomy

Oct. 24, 2014 Rise Set
Actual Time 7:33 AM CDT 6:13 PM CDT
Civil Twilight 7:04 AM CDT 6:42 PM CDT
Nautical Twilight 6:31 AM CDT 7:15 PM CDT
Astronomical Twilight 5:59 AM CDT 7:47 PM CDT
Moon 8:13 AM CDT 6:52 PM CDT
Length of Visible Light 11h 37m
Length of Day
10h 40m
Tomorrow will be 2m 40s shorter.
New Moon, 0% of the Moon is Illuminated
Today
New Moon
Oct 30
First Quarter
Nov 6
Full
Nov 14
Last Quarter
Nov 22
New

Today's Extremes

State Highs State Lows

Community

WunderPhotos

Upload Photos

1,764,544 photos uploaded!

Nearby

Snow Depth

Station Depth Elevation
No new snow has been reported.

Earthquake Activity

City Distance Mag. Time & Date
No recent earthquake activity has been reported nearby.
Minimum magnitude displayed is 2.5.

Coastal Water Temperatures

Place Temperature
No Stations Reporting

Nearby Weather Stations